This is the latest recevied weather packets stored in our database for station/object G7TKI-13. If no packets are shown the sender has not sent any weather packets the latest 10 day(s).
| Time | Temp. | Humidity | Pressure | Rain* | Wind** | Luminosity | Snow |
|---|---|---|---|---|---|---|---|
| 1777733074 | 24.44° C | 47% | 1017.9 hPa | 0 mm | - | 500 W/m² | - |
| 1777731334 | 23.33° C | 46% | 1018.3 hPa | 0 mm | - | 559 W/m² | - |
| 1777729894 | 22.78° C | 47% | 1018.7 hPa | 0 mm | - | 604 W/m² | - |
| 1777728634 | 23.89° C | 47% | 1018.9 hPa | 0 mm | - | 574 W/m² | - |
| 1777728333 | 23.89° C | 47% | 1019 hPa | 0 mm | - | 574 W/m² | - |
| 1777727613 | 22.78° C | 46% | 1019.1 hPa | 0 mm | - | 631 W/m² | - |
| 1777719214 | 22.78° C | 50% | 1020.4 hPa | 0 mm | - | 712 W/m² | - |
| 1777707054 | 15° C | 78% | 1021.6 hPa | 0 mm | - | 223 W/m² | - |
| 1777704030 | 12.22° C | 87% | 1021.4 hPa | 0 mm | - | 134 W/m² | - |
| 1777701902 | 10.56° C | 92% | 1021.5 hPa | 0 mm | - | 70 W/m² | - |
| 1777697646 | 9.44° C | 91% | 1021.4 hPa | 0 mm | - | 11 W/m² | - |
| 1777692174 | 10° C | 87% | 1021.5 hPa | 0 mm | - | 0 W/m² | - |
| 1777690356 | 10.56° C | 84% | 1021.2 hPa | 0 mm | - | 0 W/m² | - |
| 1777685495 | 12.78° C | 85% | 1022.2 hPa | 0 mm | - | 0 W/m² | - |
| 1777662155 | 19.44° C | 69% | 1022.2 hPa | 0 mm | - | 13 W/m² | - |
| 1777659135 | 21.67° C | 64% | 1022.1 hPa | 0 mm | - | 43 W/m² | - |
| 1777646334 | 23.33° C | 42% | 1023.3 hPa | 0 mm | - | 500 W/m² | - |
| 1777642706 | 23.33° C | 42% | 1023.5 hPa | 0 mm | - | 612 W/m² | - |
| 1777640854 | 22.78° C | 43% | 1023.6 hPa | 0 mm | - | 656 W/m² | - |
| 1777639618 | 22.78° C | 41% | 1023.7 hPa | 0 mm | - | 670 W/m² | - |
| 1777637759 | 22.22° C | 42% | 1023.7 hPa | 0 mm | - | 674 W/m² | - |
| 1777637147 | 22.22° C | 41% | 1024 hPa | 0 mm | - | 673 W/m² | - |
| 1777634135 | 22.22° C | 43% | 1024.4 hPa | 0 mm | - | 672 W/m² | - |
| 1777631985 | 21.11° C | 44% | 1024.6 hPa | 0 mm | - | 653 W/m² | - |
| 1777628974 | 19.44° C | 49% | 1025.1 hPa | 0 mm | - | 575 W/m² | - |
* Rain latest hour (hover to see other rain measurements)
** Current wind speed in m/s (hover to see current wind gust speed)